Basin, Montana
Current Conditions -  °F | °C
As of 7:23 AM on Sunday 23 Nov 2014 (Local Time) from KBTM Reporting Station
Light Snow Light Snow  
Wind Chill: 16°   Ceiling: 1800
Heat Index: 26°   Visibility: 3mi
Dew Point: 20°   Wind: 10mph
Humidity: 78%   Direction: 320°NW
Pressure: 29.98"   Gusts: 25mph
Location:  46.27°N, 112.26°W
Report Text: KBTM 231423Z AUTO 32009G22KT 3SM -SN OVC018 M03/M07 A2998 RMK AO2 P0000 T10331067
Loading
Personal Weather Stations






























Interactive Weather Map New forecast layout! Learn more

10-Day Weather Forecast

Advertisements
Track Severe Weather on mobile